Time;durP1;ratioP1;P1;durP2;ratioP2;P2;SDS_P1;SDS_P2;PMS_P1;PMS_P2;Temp;Humidity;BMP_temperature;BMP_pressure;BME280_temperature;BME280_humidity;BME280_pressure;Samples;Min_cycle;Max_cycle;Signal;HPM_P1;HPM_P2
2022/08/07 00:02:08;;;;;;;7.30;3.05;;;;;;;11.12;100.00;102068.63;4930072;29;20443;-83
2022/08/07 00:04:43;;;;;;;5.57;2.97;;;;;;;11.08;100.00;102066.66;4927140;29;20426;-84
2022/08/07 00:07:11;;;;;;;6.97;2.90;;;;;;;11.06;100.00;102065.00;4932737;29;20919;-84
2022/08/07 00:09:46;;;;;;;7.20;3.23;;;;;;;11.01;100.00;102069.56;4937606;29;20571;-84
2022/08/07 00:12:19;;;;;;;7.18;3.28;;;;;;;11.02;100.00;102066.59;4920331;29;20439;-85
2022/08/07 00:14:52;;;;;;;6.63;2.90;;;;;;;11.02;100.00;102065.75;4937354;29;20447;-84
2022/08/07 00:17:25;;;;;;;7.00;3.20;;;;;;;10.99;100.00;102067.09;4922566;29;20430;-84
2022/08/07 00:19:58;;;;;;;7.82;3.22;;;;;;;11.00;100.00;102063.25;4933035;29;20431;-83
2022/08/07 00:22:32;;;;;;;6.13;2.95;;;;;;;11.03;100.00;102064.66;4922484;29;20452;-84
2022/08/07 00:25:08;;;;;;;5.90;3.10;;;;;;;10.98;100.00;102056.41;4922287;29;20427;-84
2022/08/07 00:27:41;;;;;;;6.53;3.05;;;;;;;10.97;100.00;102057.50;4928624;29;20441;-84
2022/08/07 00:30:14;;;;;;;7.38;2.95;;;;;;;10.94;100.00;102060.72;4939392;29;20431;-84
2022/08/07 00:32:48;;;;;;;5.65;2.80;;;;;;;10.90;100.00;102060.41;4922980;29;20440;-84
2022/08/07 00:35:21;;;;;;;5.63;2.90;;;;;;;10.92;100.00;102060.97;4921257;29;20429;-84
2022/08/07 00:37:55;;;;;;;6.07;2.80;;;;;;;10.89;100.00;102056.00;4914592;29;20444;-84
2022/08/07 00:40:30;;;;;;;6.80;2.85;;;;;;;10.91;100.00;102053.03;4911359;29;21122;-84
2022/08/07 00:42:58;;;;;;;6.72;2.95;;;;;;;10.93;100.00;102053.63;4935761;29;20426;-84
2022/08/07 00:45:32;;;;;;;6.65;2.90;;;;;;;10.89;100.00;102048.66;4932921;29;20419;-84
2022/08/07 00:48:00;;;;;;;7.75;2.90;;;;;;;10.88;100.00;102049.75;4919194;29;20781;-84
2022/08/07 00:50:33;;;;;;;5.47;3.00;;;;;;;10.85;100.00;102049.41;4931417;29;20423;-84
2022/08/07 00:53:07;;;;;;;7.22;3.40;;;;;;;10.82;100.00;102053.44;4920134;29;20435;-84
2022/08/07 00:55:41;;;;;;;6.65;2.90;;;;;;;10.78;100.00;102051.47;4934804;29;20916;-84
2022/08/07 00:58:15;;;;;;;6.07;2.80;;;;;;;10.77;100.00;102049.81;4936537;29;20420;-84
2022/08/07 01:00:49;;;;;;;7.88;3.10;;;;;;;10.75;100.00;102047.34;4921040;29;20435;-84
2022/08/07 01:03:23;;;;;;;7.40;3.13;;;;;;;10.72;100.00;102037.78;4918522;29;20451;-84
2022/08/07 01:05:56;;;;;;;7.55;3.00;;;;;;;10.80;100.00;102041.16;4930544;29;20434;-84
2022/08/07 01:08:30;;;;;;;7.47;3.20;;;;;;;10.78;100.00;102040.59;4918182;29;20497;-85
2022/08/07 01:11:05;;;;;;;5.35;2.78;;;;;;;10.76;100.00;102045.44;4935972;29;20432;-85
2022/08/07 01:13:38;;;;;;;7.85;2.97;;;;;;;10.74;100.00;102044.88;4923455;29;20427;-84
2022/08/07 01:16:13;;;;;;;5.15;2.70;;;;;;;10.75;100.00;102049.25;4942640;29;20431;-84
2022/08/07 01:18:42;;;;;;;6.13;2.95;;;;;;;10.76;100.00;102051.72;4935204;29;20427;-84
2022/08/07 01:21:18;;;;;;;6.57;2.85;;;;;;;10.72;100.00;102050.56;4941593;29;20439;-84
2022/08/07 01:23:56;;;;;;;6.55;2.70;;;;;;;10.70;100.00;102049.97;4926686;29;20420;-84
2022/08/07 01:26:31;;;;;;;7.28;3.17;;;;;;;10.69;100.00;102048.34;4940056;29;20442;-84
2022/08/07 01:29:04;;;;;;;4.95;2.70;;;;;;;10.69;100.00;102051.91;4913559;29;20432;-84
2022/08/07 01:31:38;;;;;;;6.15;2.95;;;;;;;10.70;100.00;102053.56;4938373;29;20795;-84
2022/08/07 01:34:07;;;;;;;5.93;2.95;;;;;;;10.68;100.00;102047.50;4933856;29;20415;-84
2022/08/07 01:36:41;;;;;;;8.18;3.08;;;;;;;10.65;100.00;102048.00;4932680;29;20455;-84
2022/08/07 01:39:18;;;;;;;8.35;3.40;;;;;;;10.61;100.00;102046.84;4927233;29;20422;-84
2022/08/07 01:42:01;;;;;;;10.07;3.30;;;;;;;10.56;100.00;102038.59;4918110;29;20431;-84
2022/08/07 01:44:36;;;;;;;8.15;3.47;;;;;;;10.55;100.00;102047.84;4922779;29;20443;-84
2022/08/07 01:47:10;;;;;;;7.63;3.45;;;;;;;10.51;100.00;102041.25;4919435;29;20439;-84
2022/08/07 01:49:44;;;;;;;7.95;3.20;;;;;;;10.48;100.00;102044.44;4917774;29;20438;-84
2022/08/07 01:52:19;;;;;;;7.75;3.10;;;;;;;10.47;100.00;102045.53;4925917;29;20431;-85
2022/08/07 01:54:56;;;;;;;7.20;3.47;;;;;;;10.49;100.00;102044.19;4935972;29;20881;-84
2022/08/07 01:57:37;;;;;;;6.38;3.28;;;;;;;10.51;100.00;102036.63;4930251;29;20982;-83
2022/08/07 02:00:09;;;;;;;7.63;3.10;;;;;;;10.48;100.00;102028.94;4918243;29;20916;-84
2022/08/07 02:02:50;;;;;;;6.07;3.00;;;;;;;10.58;100.00;102028.28;4937492;29;20429;-84
2022/08/07 02:05:30;;;;;;;6.87;3.30;;;;;;;10.55;100.00;102029.63;4934753;29;21017;-84
2022/08/07 02:08:10;;;;;;;7.20;3.40;;;;;;;10.51;100.00;102039.34;4917626;29;20908;-84
2022/08/07 02:10:46;;;;;;;7.60;3.17;;;;;;;10.50;100.00;102031.44;4914831;29;20419;-84
2022/08/07 02:13:22;;;;;;;5.85;2.97;;;;;;;10.48;100.00;102031.69;4921799;29;20439;-84
2022/08/07 02:16:00;;;;;;;7.75;2.95;;;;;;;10.46;100.00;102027.53;4934812;29;20431;-83
2022/08/07 02:18:30;;;;;;;6.32;2.97;;;;;;;10.44;100.00;102035.97;4922326;29;20446;-84
2022/08/07 02:21:07;;;;;;;5.75;2.72;;;;;;;10.45;100.00;102029.41;4935090;29;20917;-84
2022/08/07 02:23:40;;;;;;;7.13;3.08;;;;;;;10.41;100.00;102022.00;4907339;29;20435;-84
2022/08/07 02:26:15;;;;;;;6.78;3.13;;;;;;;10.41;100.00;102024.72;4930056;29;20428;-85
2022/08/07 02:28:52;;;;;;;8.18;3.00;;;;;;;10.46;100.00;102024.81;4919465;29;20427;-84
2022/08/07 02:31:28;;;;;;;5.85;3.00;;;;;;;10.41;100.00;102027.44;4936721;29;20427;-84
2022/08/07 02:34:03;;;;;;;6.03;2.78;;;;;;;10.21;100.00;102001.50;4932789;29;20431;-84
2022/08/07 02:36:40;;;;;;;6.88;3.03;;;;;;;10.26;100.00;102012.47;4933653;29;20412;-84
2022/08/07 02:39:19;;;;;;;7.22;2.88;;;;;;;10.25;100.00;102013.53;4908821;29;20443;-84
2022/08/07 02:41:49;;;;;;;6.97;3.10;;;;;;;10.18;100.00;102013.69;4917804;29;20427;-84
2022/08/07 02:44:25;;;;;;;7.00;2.90;;;;;;;10.19;100.00;102017.22;4933384;29;20924;-84
2022/08/07 02:47:00;;;;;;;6.45;2.92;;;;;;;10.13;100.00;102004.63;4917528;29;20939;-84
2022/08/07 02:49:34;;;;;;;6.40;3.00;;;;;;;10.14;100.00;102015.25;4942088;29;20438;-84
2022/08/07 02:52:11;;;;;;;6.15;3.00;;;;;;;10.14;100.00;102011.72;4938682;29;20439;-85
2022/08/07 02:54:48;;;;;;;7.32;3.20;;;;;;;10.11;100.00;102014.91;4933365;29;20916;-85
2022/08/07 02:57:22;;;;;;;6.80;2.58;;;;;;;10.01;100.00;102005.50;4920532;29;20415;-84
2022/08/07 02:59:57;;;;;;;7.63;3.03;;;;;;;10.11;100.00;102018.47;4922882;29;20923;-83
2022/08/07 03:02:35;;;;;;;6.47;2.83;;;;;;;10.14;100.00;102022.59;4940691;29;20426;-84
2022/08/07 03:05:06;;;;;;;6.88;2.90;;;;;;;10.13;100.00;102020.94;4915524;29;20441;-84
2022/08/07 03:07:41;;;;;;;6.53;2.78;;;;;;;10.11;100.00;102012.19;4927732;29;20433;-85
2022/08/07 03:10:12;;;;;;;5.70;2.88;;;;;;;10.11;100.00;102017.63;4920979;29;20796;-84
2022/08/07 03:12:46;;;;;;;6.55;2.80;;;;;;;10.13;100.00;102015.50;4914513;29;20438;-84
2022/08/07 03:15:22;;;;;;;7.38;3.03;;;;;;;10.11;100.00;102012.19;4937790;29;20427;-84
2022/08/07 03:17:56;;;;;;;6.75;2.95;;;;;;;10.13;100.00;102015.50;4929443;29;20442;-84
2022/08/07 03:20:30;;;;;;;6.07;2.95;;;;;;;10.04;100.00;102006.91;4916641;29;20423;-84
2022/08/07 03:22:59;;;;;;;6.38;3.08;;;;;;;10.08;100.00;102008.09;4919384;29;20420;-84
2022/08/07 03:25:37;;;;;;;6.60;3.10;;;;;;;10.09;100.00;102009.72;4923105;29;20416;-84
2022/08/07 03:28:09;;;;;;;6.43;2.90;;;;;;;9.99;100.00;102017.69;4915064;29;20424;-84
2022/08/07 03:30:44;;;;;;;7.03;3.28;;;;;;;10.02;100.00;102009.84;4933599;29;20428;-84
2022/08/07 03:33:14;;;;;;;7.03;2.97;;;;;;;10.02;100.00;102001.69;4912699;29;20432;-84
2022/08/07 03:35:48;;;;;;;5.30;2.88;;;;;;;9.98;100.00;102000.53;4920407;29;20420;-84
2022/08/07 03:38:22;;;;;;;5.95;3.38;;;;;;;9.98;100.00;102005.97;4930045;29;20431;-84
2022/08/07 03:40:59;;;;;;;7.65;3.10;;;;;;;9.88;100.00;101995.72;4919222;29;20424;-84
2022/08/07 03:43:34;;;;;;;6.63;3.40;;;;;;;9.98;100.00;102003.25;4924475;29;20920;-84
2022/08/07 03:46:08;;;;;;;8.25;3.75;;;;;;;9.92;100.00;102012.41;4902513;29;20429;-84
2022/08/07 03:48:42;;;;;;;7.05;3.50;;;;;;;9.92;100.00;101995.25;4926065;29;20979;-84
2022/08/07 03:51:15;;;;;;;6.93;3.47;;;;;;;9.98;100.00;102005.16;4927059;29;20439;-84
2022/08/07 03:53:44;;;;;;;8.60;4.00;;;;;;;9.98;100.00;102013.31;4925560;29;20806;-85
2022/08/07 03:56:18;;;;;;;8.02;3.78;;;;;;;9.92;100.00;102011.56;4921182;29;20430;-84
2022/08/07 03:58:52;;;;;;;7.82;3.63;;;;;;;9.87;100.00;102017.72;4939827;29;20431;-84
2022/08/07 04:01:28;;;;;;;7.20;3.60;;;;;;;9.96;100.00;102016.28;4917953;29;20919;-83
2022/08/07 04:03:57;;;;;;;6.75;3.20;;;;;;;9.99;100.00;102020.41;4938175;29;20435;-84
2022/08/07 04:06:32;;;;;;;9.88;3.58;;;;;;;10.03;100.00;102019.66;4940060;29;20434;-84
2022/08/07 04:09:02;;;;;;;7.65;3.03;;;;;;;10.05;100.00;102016.69;4928056;29;20439;-84
2022/08/07 04:11:33;;;;;;;7.20;2.87;;;;;;;10.09;100.00;102019.78;4922980;29;20502;-83
2022/08/07 04:14:07;;;;;;;6.60;2.60;;;;;;;10.08;100.00;102018.97;4922278;29;20439;-83
2022/08/07 04:16:41;;;;;;;6.60;2.90;;;;;;;9.98;100.00;102022.28;4920965;29;20426;-84
2022/08/07 04:19:14;;;;;;;5.97;2.60;;;;;;;10.04;100.00;102024.06;4913213;29;20448;-84
2022/08/07 04:21:52;;;;;;;6.80;3.10;;;;;;;9.96;100.00;102029.88;4919750;29;20913;-84
2022/08/07 04:24:26;;;;;;;6.15;2.55;;;;;;;10.01;100.00;102026.41;4919397;29;20433;-84
2022/08/07 04:27:03;;;;;;;8.23;2.80;;;;;;;10.04;100.00;102029.50;4927019;29;20415;-84
2022/08/07 04:29:37;;;;;;;4.90;2.65;;;;;;;10.06;100.00;102026.53;4941495;29;20433;-84
2022/08/07 04:32:11;;;;;;;5.85;2.80;;;;;;;10.09;100.00;102026.03;4940029;29;20427;-84
2022/08/07 04:34:40;;;;;;;7.82;2.67;;;;;;;10.11;100.00;102020.34;4925085;29;20420;-83
2022/08/07 04:37:13;;;;;;;6.03;2.85;;;;;;;10.19;100.00;102042.56;4938329;29;20415;-84
2022/08/07 04:39:47;;;;;;;5.53;2.40;;;;;;;10.24;100.00;102036.38;4926450;29;20433;-84
2022/08/07 04:42:26;;;;;;;4.63;2.47;;;;;;;10.28;100.00;102031.28;4938276;29;20423;-84
2022/08/07 04:45:02;;;;;;;5.18;2.33;;;;;;;10.37;100.00;102047.00;4929473;29;20434;-84
2022/08/07 04:47:41;;;;;;;4.93;2.30;;;;;;;10.40;100.00;102044.84;4923155;29;20423;-83
2022/08/07 04:50:22;;;;;;;6.50;2.60;;;;;;;10.39;100.00;102038.59;4919787;29;20439;-84
2022/08/07 04:53:12;;;;;;;5.22;2.30;;;;;;;10.48;100.00;102048.00;4926369;29;20424;-84
2022/08/07 04:55:52;;;;;;;5.43;2.30;;;;;;;10.55;100.00;102047.84;4925520;29;20419;-84
2022/08/07 04:58:45;;;;;;;4.93;2.33;;;;;;;10.60;100.00;102047.91;4939001;28;20435;-84
2022/08/07 05:01:28;;;;;;;5.13;2.70;;;;;;;10.63;100.00;102044.69;4923174;29;20781;-84
2022/08/07 05:04:09;;;;;;;5.13;2.30;;;;;;;10.66;100.00;102049.66;4919404;29;20501;-84
2022/08/07 05:06:53;;;;;;;5.30;2.40;;;;;;;10.75;100.00;102052.78;4929419;29;20946;-84
2022/08/07 05:09:38;;;;;;;6.57;2.60;;;;;;;11.22;100.00;102051.63;4935142;29;20412;-84
2022/08/07 05:12:17;;;;;;;5.00;2.50;;;;;;;13.43;100.00;102053.81;4934838;29;20435;-84
2022/08/07 05:14:53;;;;;;;4.55;2.08;;;;;;;15.13;100.00;102042.38;4931778;29;20436;-84
2022/08/07 05:17:22;;;;;;;4.30;2.00;;;;;;;16.42;100.00;102039.03;4917233;29;20439;-84
2022/08/07 05:19:54;;;;;;;4.80;2.10;;;;;;;17.54;100.00;102038.25;4931101;29;20428;-85
2022/08/07 05:22:24;;;;;;;5.22;2.00;;;;;;;17.82;100.00;102037.34;4929131;29;20448;-84
2022/08/07 05:25:00;;;;;;;3.30;2.08;;;;;;;18.51;100.00;102044.38;4920632;29;20419;-84
2022/08/07 05:27:35;;;;;;;4.68;2.00;;;;;;;19.02;100.00;102026.94;4928659;29;20460;-84
2022/08/07 05:30:10;;;;;;;4.70;2.00;;;;;;;19.30;100.00;102023.41;4917051;29;20442;-84
2022/08/07 05:32:46;;;;;;;4.93;1.90;;;;;;;19.38;100.00;102025.44;4918969;29;20753;-84
2022/08/07 05:35:21;;;;;;;3.10;1.70;;;;;;;19.15;100.00;102030.03;4933014;29;20442;-85
2022/08/07 05:37:54;;;;;;;3.50;1.92;;;;;;;18.33;100.00;102043.28;4931893;29;20428;-84
2022/08/07 05:40:23;;;;;;;3.95;1.90;;;;;;;17.60;100.00;102048.09;4913036;29;20435;-84
2022/08/07 05:42:58;;;;;;;4.82;2.03;;;;;;;16.77;100.00;102042.63;4934275;29;20439;-84
2022/08/07 05:45:29;;;;;;;4.85;2.10;;;;;;;16.51;100.00;102051.06;4928752;29;20423;-84
2022/08/07 05:48:03;;;;;;;5.85;2.10;;;;;;;16.38;100.00;102044.31;4929321;29;20788;-84
2022/08/07 05:50:44;;;;;;;4.28;2.10;;;;;;;16.04;100.00;102053.28;4917149;29;20429;-84
2022/08/07 05:53:19;;;;;;;4.70;2.10;;;;;;;15.48;100.00;102049.69;4931724;29;20509;-84
2022/08/07 05:55:54;;;;;;;4.05;2.17;;;;;;;15.22;100.00;102048.94;4934421;29;20431;-84
2022/08/07 05:58:29;;;;;;;4.53;2.00;;;;;;;14.93;100.00;102054.19;4932229;29;20435;-84
2022/08/07 06:01:00;;;;;;;5.72;2.40;;;;;;;14.93;100.00;102045.97;4929190;29;20435;-84
2022/08/07 06:03:36;;;;;;;4.43;2.40;;;;;;;14.85;100.00;102039.13;4928822;29;20446;-84
2022/08/07 06:06:12;;;;;;;4.95;2.20;;;;;;;14.85;100.00;102043.78;4934080;29;20877;-84
2022/08/07 06:08:41;;;;;;;4.85;2.10;;;;;;;14.81;100.00;102048.19;4934071;29;20423;-83
2022/08/07 06:11:09;;;;;;;5.68;2.08;;;;;;;14.86;100.00;102032.56;4926838;29;20777;-84
2022/08/07 06:13:43;;;;;;;3.78;2.10;;;;;;;14.74;100.00;102040.22;4936613;29;20419;-84
2022/08/07 06:16:15;;;;;;;5.55;2.20;;;;;;;14.81;100.00;102038.03;4937314;29;20443;-85
2022/08/07 06:18:49;;;;;;;4.50;1.80;;;;;;;14.79;100.00;102037.50;4934012;29;20427;-83
2022/08/07 06:21:22;;;;;;;4.60;2.10;;;;;;;14.77;100.00;102032.25;4919909;29;20428;-85
2022/08/07 06:23:50;;;;;;;4.00;2.10;;;;;;;14.86;100.00;102029.81;4933256;29;20415;-82
2022/08/07 06:26:25;;;;;;;5.03;1.83;;;;;;;14.88;100.00;102040.50;4917095;29;20427;-84
2022/08/07 06:28:59;;;;;;;6.13;2.13;;;;;;;14.91;100.00;102039.94;4921161;29;20427;-83
2022/08/07 06:31:34;;;;;;;5.00;1.80;;;;;;;15.12;100.00;102033.31;4917526;29;20427;-84
2022/08/07 06:34:08;;;;;;;4.43;2.20;;;;;;;15.17;100.00;102037.16;4929430;29;20955;-83
2022/08/07 06:36:41;;;;;;;5.93;2.50;;;;;;;15.25;100.00;102031.91;4923850;29;20440;-83
2022/08/07 06:39:14;;;;;;;3.20;1.90;;;;;;;15.33;100.00;102038.75;4934497;29;21045;-83
2022/08/07 06:41:53;;;;;;;4.93;1.85;;;;;;;15.10;100.00;102032.78;4930240;29;20431;-83
2022/08/07 06:44:42;;;;;;;4.55;1.80;;;;;;;15.21;100.00;102036.31;4928775;29;21101;-83
2022/08/07 06:47:16;;;;;;;4.80;1.75;;;;;;;15.26;100.00;102039.06;4928085;29;20444;-83
2022/08/07 06:49:50;;;;;;;5.28;1.70;;;;;;;15.38;100.00;102037.91;4898740;29;20429;-83
2022/08/07 06:52:27;;;;;;;5.13;1.90;;;;;;;15.47;100.00;102039.00;4916166;29;20457;-82
2022/08/07 06:55:01;;;;;;;6.63;1.80;;;;;;;15.31;100.00;102032.72;4933141;29;20928;-82
2022/08/07 06:57:37;;;;;;;4.22;1.90;;;;;;;15.43;100.00;102044.22;4927440;29;20425;-83
2022/08/07 07:00:11;;;;;;;4.25;1.90;;;;;;;15.50;100.00;102041.16;4919518;29;20428;-83
2022/08/07 07:02:48;;;;;;;7.35;1.90;;;;;;;15.63;100.00;102042.47;4926940;29;20424;-83
2022/08/07 07:05:19;;;;;;;4.40;1.80;;;;;;;15.78;100.00;102031.47;4915927;29;20875;-83
2022/08/07 07:07:53;;;;;;;7.90;2.17;;;;;;;15.79;100.00;102041.34;4926897;29;20427;-83
2022/08/07 07:10:28;;;;;;;3.78;2.00;;;;;;;15.78;100.00;102033.38;4916435;29;20427;-83
2022/08/07 07:13:11;;;;;;;4.68;2.17;;;;;;;15.75;100.00;102029.25;4925464;29;20435;-82
2022/08/07 07:15:44;;;;;;;4.85;2.10;;;;;;;15.87;100.00;102030.88;4926068;29;20442;-82
2022/08/07 07:18:23;;;;;;;4.03;1.92;;;;;;;16.03;100.00;102045.34;4920373;29;20438;-83
2022/08/07 07:21:01;;;;;;;5.20;2.03;;;;;;;15.89;100.00;102040.47;4927262;29;20431;-83
2022/08/07 07:23:34;;;;;;;4.85;2.00;;;;;;;16.01;100.00;102037.41;4928173;29;20427;-83
2022/08/07 07:26:11;;;;;;;6.78;1.90;;;;;;;16.25;100.00;102042.19;4923808;29;20436;-83
2022/08/07 07:28:45;;;;;;;4.28;2.10;;;;;;;16.21;100.00;102041.94;4928480;29;20423;-83
2022/08/07 07:31:21;;;;;;;4.32;1.90;;;;;;;16.30;100.00;102042.16;4930386;29;20423;-83
2022/08/07 07:33:59;;;;;;;3.85;2.03;;;;;;;16.42;100.00;102037.13;4927300;29;20448;-82
2022/08/07 07:36:34;;;;;;;4.77;2.03;;;;;;;16.38;100.00;102032.47;4918750;29;20523;-83
2022/08/07 07:39:04;;;;;;;4.33;1.90;;;;;;;16.42;100.00;102031.63;4923793;29;20435;-82
2022/08/07 07:41:34;;;;;;;4.68;2.00;;;;;;;16.54;100.00;102022.19;4928250;29;20792;-82
2022/08/07 07:44:10;;;;;;;4.50;2.20;;;;;;;16.66;100.00;102026.19;4937044;29;20431;-82
2022/08/07 07:46:44;;;;;;;3.83;2.00;;;;;;;16.72;100.00;102026.97;4914922;29;21042;-83
2022/08/07 07:49:21;;;;;;;5.38;2.10;;;;;;;16.89;100.00;102025.75;4914186;29;20449;-82
2022/08/07 07:51:49;;;;;;;5.80;2.08;;;;;;;16.97;100.00;102027.88;4924759;29;20444;-83
2022/08/07 07:54:24;;;;;;;6.00;2.13;;;;;;;17.00;100.00;102021.81;4914340;29;20433;-84
2022/08/07 07:57:00;;;;;;;5.47;2.10;;;;;;;17.01;100.00;102020.69;4917929;29;20435;-83
2022/08/07 07:59:34;;;;;;;5.00;2.25;;;;;;;16.97;100.00;102022.38;4929058;29;20428;-84
2022/08/07 08:02:11;;;;;;;5.38;2.38;;;;;;;17.05;100.00;102018.19;4924620;29;20460;-83
2022/08/07 08:04:47;;;;;;;5.95;2.40;;;;;;;16.91;100.00;102023.53;4922949;29;20438;-82
2022/08/07 08:07:20;;;;;;;4.55;2.20;;;;;;;17.17;100.00;102013.91;4929569;29;20446;-82
2022/08/07 08:09:51;;;;;;;5.00;2.17;;;;;;;17.19;100.00;102010.88;4928325;29;20442;-84
2022/08/07 08:12:25;;;;;;;3.83;2.03;;;;;;;17.38;100.00;102013.69;4926320;29;20931;-82
2022/08/07 08:14:58;;;;;;;5.70;2.17;;;;;;;17.20;100.00;102017.19;4917180;29;20463;-81
2022/08/07 08:17:35;;;;;;;4.22;2.38;;;;;;;17.31;100.00;102018.72;4920712;29;21020;-82
2022/08/07 08:20:11;;;;;;;5.57;2.30;;;;;;;17.32;100.00;102004.66;4905958;29;20919;-83
2022/08/07 08:28:35;;;;;;;5.68;2.30;;;;;;;17.79;100.00;101999.38;4920396;29;20429;-82
2022/08/07 08:31:10;;;;;;;4.25;2.30;;;;;;;17.80;100.00;102005.72;4913308;29;20440;-83
2022/08/07 08:33:45;;;;;;;4.10;2.03;;;;;;;17.87;100.00;101992.41;4921426;29;20785;-84
2022/08/07 08:36:21;;;;;;;6.05;2.10;;;;;;;17.77;100.00;102000.81;4936652;29;20427;-82
2022/08/07 08:38:56;;;;;;;5.93;2.03;;;;;;;17.75;100.00;101998.34;4935512;29;20446;-82
2022/08/07 08:41:36;;;;;;;4.32;2.10;;;;;;;17.88;100.00;101999.53;4934515;29;20435;-82
2022/08/07 08:44:19;;;;;;;5.68;2.28;;;;;;;17.83;100.00;101999.63;4911180;29;20474;-81
2022/08/07 08:47:02;;;;;;;3.25;2.00;;;;;;;17.81;100.00;101997.13;4910874;29;20440;-81
2022/08/07 08:49:36;;;;;;;5.65;2.20;;;;;;;17.87;99.99;102008.09;4918338;29;20443;-82
2022/08/07 08:52:18;;;;;;;3.35;1.90;;;;;;;17.90;95.86;101993.72;4917389;29;20455;-82
2022/08/07 08:54:59;;;;;;;5.03;2.10;;;;;;;17.82;99.63;102001.53;4928829;29;20788;-83
2022/08/07 08:57:38;;;;;;;4.72;2.40;;;;;;;18.06;98.79;102005.38;4916643;29;20441;-81
2022/08/07 09:00:13;;;;;;;3.97;2.10;;;;;;;18.19;87.81;101991.66;4926426;29;20440;-82
2022/08/07 09:02:56;;;;;;;4.80;2.42;;;;;;;18.41;100.00;101994.91;4875552;29;20458;-82
2022/08/07 09:05:37;;;;;;;4.65;2.33;;;;;;;18.63;92.10;101985.97;4926446;29;20439;-82
2022/08/07 09:08:30;;;;;;;3.88;2.20;;;;;;;18.46;75.95;101981.88;4913994;29;20454;-82
2022/08/07 09:11:16;;;;;;;4.40;2.10;;;;;;;18.53;86.48;101968.53;4913553;29;20466;-82
2022/08/07 09:13:57;;;;;;;4.40;2.10;;;;;;;18.41;84.15;101984.72;4905520;29;21291;-81
2022/08/07 09:16:41;;;;;;;4.00;2.30;;;;;;;18.51;79.61;101981.78;4912025;29;20438;-82
2022/08/07 09:19:23;;;;;;;4.50;2.20;;;;;;;18.45;80.97;101979.41;4920188;29;20435;-83
2022/08/07 09:22:02;;;;;;;4.15;2.00;;;;;;;18.47;84.11;101974.41;4894065;29;20539;-83
2022/08/07 09:24:47;;;;;;;5.57;2.20;;;;;;;18.79;87.43;101961.72;4906447;29;20447;-81
2022/08/07 09:27:29;;;;;;;4.32;2.00;;;;;;;18.85;85.66;101968.75;4898014;29;20435;-81
2022/08/07 09:30:06;;;;;;;3.30;1.90;;;;;;;18.83;87.92;101968.25;4917621;29;20459;-83
2022/08/07 09:32:52;;;;;;;4.63;2.38;;;;;;;18.72;83.55;101969.56;4912254;29;20469;-84
2022/08/07 09:35:37;;;;;;;3.83;2.30;;;;;;;18.95;94.22;101963.09;4917557;29;20954;-80
2022/08/07 09:38:18;;;;;;;4.60;2.28;;;;;;;18.83;95.02;101968.25;4900255;29;21203;-81
2022/08/07 09:41:06;;;;;;;4.43;2.43;;;;;;;18.62;93.50;101954.84;4912363;29;20431;-83
2022/08/07 09:43:50;;;;;;;4.32;2.20;;;;;;;18.56;93.22;101958.00;4892202;29;20542;-82
2022/08/07 09:46:38;;;;;;;4.90;2.50;;;;;;;18.84;89.77;101959.69;4908611;29;20447;-82
2022/08/07 09:49:28;;;;;;;4.57;2.40;;;;;;;19.19;91.54;101951.84;4910260;29;20447;-83
2022/08/07 09:52:08;;;;;;;4.10;2.35;;;;;;;19.45;93.50;101944.97;4914973;29;20436;-84
2022/08/07 09:54:47;;;;;;;4.68;2.30;;;;;;;19.36;82.93;101948.47;4909772;29;20439;-83
2022/08/07 09:57:48;;;;;;;5.15;2.47;;;;;;;19.52;82.88;101965.50;4892176;29;20458;-82
2022/08/07 10:00:24;;;;;;;5.80;2.50;;;;;;;19.16;85.13;101955.22;4879199;29;20451;-82
2022/08/07 10:03:42;;;;;;;4.93;2.63;;;;;;;19.23;89.22;101946.53;4867788;28;20971;-83
2022/08/07 10:06:43;;;;;;;4.37;2.37;;;;;;;19.36;79.17;101944.88;4898030;29;20538;-82
2022/08/07 10:09:38;;;;;;;7.38;2.67;;;;;;;19.19;92.39;101948.25;4913946;29;20443;-83
2022/08/07 10:12:17;;;;;;;4.45;2.47;;;;;;;18.80;86.81;101947.63;4910375;29;20778;-81
2022/08/07 10:15:08;;;;;;;5.63;2.60;;;;;;;18.35;86.28;101931.63;4917782;29;20443;-81
2022/08/07 10:17:56;;;;;;;5.35;2.35;;;;;;;18.49;84.99;101936.31;4915204;29;21074;-82
2022/08/07 10:20:43;;;;;;;5.00;2.42;;;;;;;18.89;84.11;101933.94;4905597;29;20451;-80
2022/08/07 10:23:46;;;;;;;5.13;2.60;;;;;;;19.55;87.22;101933.69;4911735;29;20777;-85
2022/08/07 10:26:46;;;;;;;5.82;2.50;;;;;;;19.75;80.36;101931.59;4905157;29;20435;-83
2022/08/07 10:29:45;;;;;;;5.00;2.60;;;;;;;19.96;76.45;101923.69;4909791;29;21587;-83
2022/08/07 10:32:28;;;;;;;4.07;2.30;;;;;;;19.52;75.96;101926.03;4906034;29;21158;-82
2022/08/07 10:35:15;;;;;;;5.50;2.42;;;;;;;19.62;79.77;101934.06;4888886;29;21293;-81
2022/08/07 10:38:01;;;;;;;5.60;2.20;;;;;;;19.95;73.06;101916.50;4907594;29;20431;-82
2022/08/07 10:40:37;;;;;;;5.38;2.20;;;;;;;20.12;70.72;101913.06;4910074;29;20995;-83
2022/08/07 10:43:17;;;;;;;4.60;2.35;;;;;;;19.96;73.75;101921.72;4908859;29;20446;-83
2022/08/07 10:45:48;;;;;;;5.53;2.65;;;;;;;19.80;72.95;101906.66;4912890;29;20859;-82
2022/08/07 10:48:35;;;;;;;4.32;2.40;;;;;;;20.29;81.80;101917.88;4894125;29;20439;-83
2022/08/07 10:51:14;;;;;;;5.57;2.53;;;;;;;20.38;71.70;101908.50;4913520;29;20439;-82
2022/08/07 10:53:54;;;;;;;4.72;2.50;;;;;;;20.23;78.32;101886.78;4910325;29;20801;-85
2022/08/07 10:56:40;;;;;;;5.78;2.70;;;;;;;20.56;79.31;101889.22;4892137;29;20454;-84
2022/08/07 10:59:24;;;;;;;5.75;2.72;;;;;;;20.57;74.78;101885.34;4910929;29;20447;-81
2022/08/07 11:02:02;;;;;;;4.13;2.50;;;;;;;20.96;77.84;101883.69;4886426;29;20804;-83
2022/08/07 11:04:51;;;;;;;5.15;2.60;;;;;;;20.59;71.78;101880.31;4910135;29;20454;-83
2022/08/07 11:07:36;;;;;;;4.80;2.60;;;;;;;20.65;68.21;101881.78;4898188;29;20435;-84
2022/08/07 11:10:18;;;;;;;6.47;3.10;;;;;;;20.89;71.48;101877.81;4916621;29;20458;-85
2022/08/07 11:12:58;;;;;;;5.30;2.47;;;;;;;21.02;67.30;101878.84;4918492;29;20446;-84
2022/08/07 11:15:35;;;;;;;5.13;2.60;;;;;;;20.98;68.40;101884.19;4911229;29;20442;-83
2022/08/07 11:18:15;;;;;;;4.18;2.25;;;;;;;20.48;71.41;101876.16;4906418;29;21132;-83
2022/08/07 11:21:01;;;;;;;4.07;2.17;;;;;;;20.95;68.09;101886.78;4894284;29;20501;-84
2022/08/07 11:23:46;;;;;;;3.92;2.20;;;;;;;20.88;61.66;101882.56;4894532;29;21124;-82
2022/08/07 11:26:20;;;;;;;4.63;2.30;;;;;;;20.38;64.24;101878.09;4909835;29;20450;-82
2022/08/07 11:28:53;;;;;;;3.90;2.03;;;;;;;19.86;69.54;101878.59;4914493;29;20440;-82
2022/08/07 11:31:31;;;;;;;5.77;2.30;;;;;;;19.32;69.88;101878.44;4906862;29;21656;-82
2022/08/07 11:34:16;;;;;;;4.87;2.30;;;;;;;19.15;72.51;101881.03;4912047;29;20442;-84
2022/08/07 11:36:58;;;;;;;4.47;2.20;;;;;;;18.94;78.14;101877.88;4906955;29;20442;-83
2022/08/07 11:40:00;;;;;;;5.00;2.40;;;;;;;19.19;73.90;101888.38;4906192;29;21343;-81
2022/08/07 11:42:44;;;;;;;5.03;2.70;;;;;;;19.15;80.99;101881.03;4911361;29;20456;-81
2022/08/07 11:45:28;;;;;;;6.43;2.63;;;;;;;19.55;73.70;101867.44;4893610;29;20964;-84
2022/08/07 11:48:28;;;;;;;6.57;2.65;;;;;;;20.16;72.77;101867.06;4912303;29;20809;-85
2022/08/07 11:51:12;;;;;;;5.38;3.25;;;;;;;20.35;74.25;101855.78;4889480;29;20458;-83
2022/08/07 11:53:53;;;;;;;3.72;2.10;;;;;;;20.59;64.09;101852.66;4912802;29;20447;-82
2022/08/07 11:56:36;;;;;;;5.95;2.20;;;;;;;21.10;64.75;101855.91;4911032;29;20439;-82
2022/08/07 11:59:24;;;;;;;3.78;2.08;;;;;;;21.16;61.91;101846.31;4906819;29;20454;-81
2022/08/07 12:02:00;;;;;;;5.37;2.27;;;;;;;21.19;58.98;101847.63;4882155;28;20443;-83
2022/08/07 12:04:54;;;;;;;6.40;2.20;;;;;;;21.34;62.25;101849.09;4907062;29;20538;-83
2022/08/07 12:07:26;;;;;;;5.25;2.30;;;;;;;21.42;64.43;101842.75;4887730;29;20439;-83
2022/08/07 12:10:07;;;;;;;3.67;2.20;;;;;;;21.63;60.80;101845.69;4911076;29;20462;-82
2022/08/07 12:12:43;;;;;;;3.85;2.22;;;;;;;21.59;62.56;101844.72;4916061;29;20450;-82